Weather at Poriya Medical Center

Public forecast

Using degrees Celsius for public forecast. Weather courtesy of forecast.io.

Closest aviation weather report (METAR) to Poriya Medical Center

Closest report is Ben Ya'akov Airport, 13.7 nm (25.4 km) N. Retrieved 2021/10/26 04:50 UTC (35 minutes ago):

LLIB 260450Z AUTO VRB02KT 7000 NSC 15/13 Q1016

Closest aviation forecast (TAF) to Poriya Medical Center

Closest forecast is Ben Ya'akov Airport, 13.7 nm (25.4 km) N. Retrieved 2021-10-26 03:12 UTC (2 hours ago):

TAF TAF LLIB 260309Z 2603/2624 23004KT CAVOK BECMG 2605/2607 16007KT BECMG 2611/2613 34013KT BECMG 2617/2619 VRB03KT TX27/2612Z TN13/2603Z